Algona, IA

9:42 AM CST on February 22, 2018 (GMT -0600)
Algona Municipal

Weather History for KAXA - September, 2012

Change the Weather History Date:

Sunday, September 16, 2012

  Actual Average Record
Temperature  
Mean Temperature 64 °F -  
Max Temperature 78 °F 72 °F 87 °F (2015)
Min Temperature 51 °F 50 °F 41 °F (2014)
Growing Degree Days 14 (Base 50)    
Moisture  
Dew Point 53 °F    
Average Humidity 69    
Maximum Humidity 94    
Minimum Humidity 39    
Precipitation  
Precipitation 0.00 in - - ()
Sea Level Pressure  
Sea Level Pressure 29.97 in    
Wind  
Wind Speed 11 mph (SSW)    
Max Wind Speed 18 mph    
Max Gust Speed 24 mph    
Visibility 10 miles    
Events      
Averages and records for this station are not official NWS values.
T = Trace of Precipitation, MM = Missing Value Source: NWS Daily Summary

Daily Weather History Graph

Daily Weather History Graph

Search for Another Location

Airport or City:

Trip Planner

Search our weather history database for the weather conditions in past years. The results will help you decide how hot, cold, wet, or windy it might be!

Date:

Astronomy

Sep. 16, 2012 Rise Set
Actual Time 6:58 AM CDT 7:24 PM CDT
Civil Twilight 6:29 AM CDT 7:52 PM CDT
Nautical Twilight 5:56 AM CDT 8:26 PM CDT
Astronomical Twilight 5:21 AM CDT 9:00 PM CDT
Moon 7:41 AM CDT (9/16) 7:26 PM CDT (9/16)
Length of Visible Light 13h 22m
Length of Day
12h 25m
New Moon, 0% of the Moon is Illuminated
Sep 16
New Moon
Sep 22
First Quarter
Sep 29
Full
Oct 8
Last Quarter
Oct 15
New

Hourly Weather History & Observations

Time (CDT) Temp. Dew Point Humidity Pressure Visibility Wind Dir Wind Speed Gust Speed Precip Events Conditions
12:15 AM 55.4 °F 46.4 °F 72% 30.06 in 10.0 mi South 10.4 mph - N/A   Clear
12:35 AM 55.4 °F 46.4 °F 72% 30.06 in 10.0 mi South 11.5 mph - N/A   Clear
12:55 AM 55.4 °F 46.4 °F 72% 30.05 in 10.0 mi SSW 10.4 mph - N/A   Clear
1:15 AM 57.2 °F 46.4 °F 67% 30.05 in 10.0 mi SSW 10.4 mph - N/A   Clear
1:35 AM 57.2 °F 46.4 °F 67% 30.06 in 10.0 mi SSW 10.4 mph - N/A   Clear
1:55 AM 57.2 °F 46.4 °F 67% 30.05 in 10.0 mi SSW 11.5 mph - N/A   Clear
2:15 AM 57.2 °F 46.4 °F 67% 30.05 in 10.0 mi SSW 9.2 mph - N/A   Clear
2:35 AM 55.4 °F 46.4 °F 72% 30.05 in 10.0 mi South 9.2 mph - N/A   Clear
2:55 AM 53.6 °F 46.4 °F 77% 30.04 in 10.0 mi South 9.2 mph - N/A   Clear
3:15 AM 53.6 °F 46.4 °F 77% 30.04 in 10.0 mi South 9.2 mph - N/A   Clear
3:35 AM 53.6 °F 46.4 °F 77% 30.04 in 10.0 mi South 8.1 mph - N/A   Clear
3:55 AM 53.6 °F 46.4 °F 77% 30.03 in 10.0 mi South 9.2 mph - N/A   Clear
4:15 AM 53.6 °F 46.4 °F 77% 30.02 in 10.0 mi South 9.2 mph - N/A   Clear
4:35 AM 53.6 °F 46.4 °F 77% 30.02 in 10.0 mi South 9.2 mph - N/A   Clear
4:55 AM 51.8 °F 48.2 °F 88% 30.02 in 10.0 mi South 9.2 mph - N/A   Clear
5:15 AM 51.8 °F 48.2 °F 88% 30.02 in 10.0 mi South 10.4 mph - N/A   Clear
5:35 AM 51.8 °F 48.2 °F 88% 30.02 in 10.0 mi South 11.5 mph - N/A   Clear
5:55 AM 51.8 °F 48.2 °F 88% 30.01 in - South 10.4 mph - N/A   Clear
6:15 AM 51.8 °F 48.2 °F 88% 30.01 in 10.0 mi South 10.4 mph - N/A   Clear
6:35 AM 51.8 °F 48.2 °F 88% 30.01 in 10.0 mi SSW 11.5 mph - N/A   Clear
6:55 AM 51.8 °F 48.2 °F 88% 30.02 in 10.0 mi South 10.4 mph - N/A   Clear
7:15 AM 51.8 °F 48.2 °F 88% 30.02 in 10.0 mi South 9.2 mph - N/A   Clear
7:35 AM 51.8 °F 50.0 °F 94% 30.02 in 10.0 mi South 9.2 mph - N/A   Clear
7:55 AM 53.6 °F 50.0 °F 88% 30.02 in 10.0 mi South 10.4 mph - N/A   Clear
8:15 AM 53.6 °F 50.0 °F 88% 30.02 in 10.0 mi South 11.5 mph - N/A   Clear
8:35 AM 55.4 °F 51.8 °F 88% 30.02 in 10.0 mi South 11.5 mph - N/A   Clear
8:55 AM 57.2 °F 53.6 °F 88% 30.01 in 10.0 mi South 13.8 mph - N/A   Clear
9:15 AM 59.0 °F 55.4 °F 88% 30.01 in 10.0 mi SSW 13.8 mph - N/A   Clear
9:35 AM 60.8 °F 55.4 °F 82% 30.01 in 10.0 mi SSW 15.0 mph - N/A   Clear
9:55 AM 64.4 °F 57.2 °F 77% 30.00 in 10.0 mi SSW 16.1 mph - N/A   Clear
10:15 AM 64.4 °F 57.2 °F 77% 30.00 in 10.0 mi SSW 13.8 mph 19.6 mph N/A   Clear
10:35 AM 66.2 °F 57.2 °F 73% 30.00 in 10.0 mi SSW 17.3 mph - N/A   Clear
10:55 AM 68.0 °F 59.0 °F 73% 30.00 in 10.0 mi SW 15.0 mph 20.7 mph N/A   Clear
11:15 AM 69.8 °F 59.0 °F 68% 29.99 in 10.0 mi SSW 13.8 mph 19.6 mph N/A   Clear
11:35 AM 69.8 °F 59.0 °F 68% 29.98 in 10.0 mi SSW 16.1 mph - N/A   Clear
11:55 AM 71.6 °F 57.2 °F 60% 29.98 in 10.0 mi SW 18.4 mph 24.2 mph N/A   Clear
12:15 PM 71.6 °F 59.0 °F 64% 29.98 in 10.0 mi SSW 16.1 mph 23.0 mph N/A   Clear
12:35 PM 73.4 °F 59.0 °F 61% 29.97 in 10.0 mi SW 16.1 mph 21.9 mph N/A   Clear
12:55 PM 75.2 °F 57.2 °F 53% 29.96 in 1.5 mi SW 13.8 mph - N/A   Clear
1:15 PM 75.2 °F 57.2 °F 53% 29.96 in - SSW 13.8 mph 21.9 mph N/A   Clear
1:55 PM 77.0 °F 55.4 °F 47% 29.95 in 10.0 mi SW 11.5 mph 21.9 mph N/A   Clear
2:15 PM 77.0 °F 55.4 °F 47% 29.94 in 10.0 mi SW 12.7 mph 21.9 mph N/A   Clear
2:35 PM 77.0 °F 53.6 °F 44% 29.93 in 10.0 mi SSW 15.0 mph 21.9 mph N/A   Clear
2:55 PM 77.0 °F 53.6 °F 44% 29.92 in 10.0 mi SW 16.1 mph - N/A   Clear
3:15 PM 78.8 °F 53.6 °F 42% 29.91 in 10.0 mi SW 13.8 mph - N/A   Clear
3:35 PM 77.0 °F 53.6 °F 44% 29.91 in 10.0 mi SSW 12.7 mph 23.0 mph N/A   Clear
3:55 PM 78.8 °F 53.6 °F 42% 29.91 in 10.0 mi SW 12.7 mph - N/A   Clear
4:15 PM 78.8 °F 53.6 °F 42% 29.91 in 10.0 mi SW 15.0 mph - N/A   Clear
4:35 PM 78.8 °F 51.8 °F 39% 29.90 in 10.0 mi SW 15.0 mph - N/A   Clear
4:55 PM 78.8 °F 51.8 °F 39% 29.90 in 10.0 mi SW 11.5 mph - N/A   Clear
5:15 PM 78.8 °F 51.8 °F 39% 29.89 in 10.0 mi SW 11.5 mph 18.4 mph N/A   Clear
5:35 PM 78.8 °F 53.6 °F 42% 29.89 in 10.0 mi SW 9.2 mph - N/A   Clear
5:55 PM 77.0 °F 53.6 °F 44% 29.89 in 10.0 mi SW 11.5 mph 17.3 mph N/A   Clear
6:15 PM 77.0 °F 53.6 °F 44% 29.89 in 10.0 mi SW 10.4 mph - N/A   Clear
6:35 PM 75.2 °F 55.4 °F 50% 29.89 in 10.0 mi SW 10.4 mph 16.1 mph N/A   Clear
6:55 PM 73.4 °F 55.4 °F 53% 29.89 in 10.0 mi SSW 6.9 mph - N/A   Clear
7:15 PM 71.6 °F 55.4 °F 57% 29.90 in 10.0 mi SW 5.8 mph - N/A   Clear
7:35 PM 69.8 °F 55.4 °F 60% 29.91 in 10.0 mi SSW 6.9 mph - N/A   Clear
7:55 PM 68.0 °F 55.4 °F 64% 29.91 in 10.0 mi SSW 6.9 mph - N/A   Clear
8:15 PM 66.2 °F 55.4 °F 68% 29.92 in 10.0 mi SSW 8.1 mph - N/A   Clear
8:35 PM 64.4 °F 57.2 °F 77% 29.92 in 10.0 mi SSW 8.1 mph - N/A   Clear
8:55 PM 64.4 °F 57.2 °F 77% 29.92 in 10.0 mi SSW 9.2 mph - N/A   Clear
9:15 PM 64.4 °F 57.2 °F 77% 29.92 in 10.0 mi SSW 9.2 mph - N/A   Clear
9:35 PM 62.6 °F 57.2 °F 82% 29.92 in 10.0 mi SSW 8.1 mph - N/A   Clear
9:55 PM 62.6 °F 57.2 °F 82% 29.92 in 10.0 mi SSW 8.1 mph - N/A   Clear
10:15 PM 62.6 °F 57.2 °F 82% 29.93 in 10.0 mi SW 5.8 mph - N/A   Clear
10:35 PM 62.6 °F 57.2 °F 82% 29.93 in 10.0 mi SW 8.1 mph - N/A   Clear
10:55 PM 62.6 °F 59.0 °F 88% 29.93 in 10.0 mi SW 6.9 mph - N/A   Clear
11:15 PM 62.6 °F 57.2 °F 82% 29.93 in 10.0 mi SW 8.1 mph - N/A   Clear
11:35 PM 62.6 °F 57.2 °F 82% 29.93 in 10.0 mi SW 6.9 mph - N/A   Clear
11:55 PM 60.8 °F 57.2 °F 88% 29.93 in 10.0 mi WSW 5.8 mph - N/A   Clear